sensor_id;sensor_type;location;lat;lon;timestamp;P1;durP1;ratioP1;P2;durP2;ratioP2
31402;SDS011;18039;52.188;21.024;2023-05-20T00:01:49;17.27;;;8.13;;
31402;SDS011;18039;52.188;21.024;2023-05-20T00:04:16;15.45;;;8.35;;
31402;SDS011;18039;52.188;21.024;2023-05-20T00:06:44;13.00;;;7.35;;
31402;SDS011;18039;52.188;21.024;2023-05-20T00:09:11;11.88;;;8.07;;
31402;SDS011;18039;52.188;21.024;2023-05-20T00:11:39;12.57;;;7.63;;
31402;SDS011;18039;52.188;21.024;2023-05-20T00:14:06;13.88;;;7.25;;
31402;SDS011;18039;52.188;21.024;2023-05-20T00:16:36;13.05;;;7.18;;
31402;SDS011;18039;52.188;21.024;2023-05-20T00:19:03;12.18;;;7.10;;
31402;SDS011;18039;52.188;21.024;2023-05-20T00:21:31;14.38;;;7.32;;
31402;SDS011;18039;52.188;21.024;2023-05-20T00:23:59;12.82;;;7.40;;
31402;SDS011;18039;52.188;21.024;2023-05-20T00:26:27;10.68;;;6.57;;
31402;SDS011;18039;52.188;21.024;2023-05-20T00:28:56;12.70;;;7.22;;
31402;SDS011;18039;52.188;21.024;2023-05-20T00:31:23;14.00;;;7.43;;
31402;SDS011;18039;52.188;21.024;2023-05-20T00:33:51;10.80;;;7.47;;
31402;SDS011;18039;52.188;21.024;2023-05-20T00:36:18;15.27;;;7.30;;
31402;SDS011;18039;52.188;21.024;2023-05-20T00:38:47;15.32;;;7.80;;
31402;SDS011;18039;52.188;21.024;2023-05-20T00:41:15;17.17;;;7.47;;
31402;SDS011;18039;52.188;21.024;2023-05-20T00:43:42;14.90;;;7.85;;
31402;SDS011;18039;52.188;21.024;2023-05-20T00:46:09;15.80;;;8.20;;
31402;SDS011;18039;52.188;21.024;2023-05-20T00:48:38;18.35;;;7.45;;
31402;SDS011;18039;52.188;21.024;2023-05-20T00:51:07;15.05;;;8.20;;
31402;SDS011;18039;52.188;21.024;2023-05-20T00:53:36;11.15;;;7.05;;
31402;SDS011;18039;52.188;21.024;2023-05-20T00:56:04;13.48;;;7.93;;
31402;SDS011;18039;52.188;21.024;2023-05-20T00:58:32;12.68;;;7.68;;
31402;SDS011;18039;52.188;21.024;2023-05-20T01:01:03;11.63;;;7.10;;
31402;SDS011;18039;52.188;21.024;2023-05-20T01:03:32;13.50;;;6.95;;
31402;SDS011;18039;52.188;21.024;2023-05-20T01:05:59;12.48;;;6.50;;
31402;SDS011;18039;52.188;21.024;2023-05-20T01:08:27;14.70;;;6.78;;
31402;SDS011;18039;52.188;21.024;2023-05-20T01:11:01;11.95;;;6.43;;
31402;SDS011;18039;52.188;21.024;2023-05-20T01:13:46;12.00;;;7.10;;
31402;SDS011;18039;52.188;21.024;2023-05-20T01:16:16;14.75;;;6.63;;
31402;SDS011;18039;52.188;21.024;2023-05-20T01:18:44;14.55;;;6.63;;
31402;SDS011;18039;52.188;21.024;2023-05-20T01:21:14;9.60;;;6.70;;
31402;SDS011;18039;52.188;21.024;2023-05-20T01:23:43;13.27;;;6.97;;
31402;SDS011;18039;52.188;21.024;2023-05-20T01:26:10;13.55;;;6.38;;
31402;SDS011;18039;52.188;21.024;2023-05-20T01:28:41;13.02;;;6.90;;
31402;SDS011;18039;52.188;21.024;2023-05-20T01:31:13;12.77;;;7.13;;
31402;SDS011;18039;52.188;21.024;2023-05-20T01:33:45;12.30;;;6.72;;
31402;SDS011;18039;52.188;21.024;2023-05-20T01:36:18;15.20;;;7.50;;
31402;SDS011;18039;52.188;21.024;2023-05-20T01:38:47;10.85;;;6.32;;
31402;SDS011;18039;52.188;21.024;2023-05-20T01:41:16;13.02;;;6.45;;
31402;SDS011;18039;52.188;21.024;2023-05-20T01:43:44;11.65;;;6.10;;
31402;SDS011;18039;52.188;21.024;2023-05-20T01:46:12;10.85;;;6.10;;
31402;SDS011;18039;52.188;21.024;2023-05-20T01:48:41;11.85;;;6.15;;
31402;SDS011;18039;52.188;21.024;2023-05-20T01:51:08;11.25;;;5.97;;
31402;SDS011;18039;52.188;21.024;2023-05-20T01:53:36;7.03;;;5.07;;
31402;SDS011;18039;52.188;21.024;2023-05-20T01:56:04;10.45;;;6.05;;
31402;SDS011;18039;52.188;21.024;2023-05-20T01:58:32;10.70;;;6.15;;
31402;SDS011;18039;52.188;21.024;2023-05-20T02:00:59;11.13;;;6.13;;
31402;SDS011;18039;52.188;21.024;2023-05-20T02:03:27;11.95;;;6.95;;
31402;SDS011;18039;52.188;21.024;2023-05-20T02:05:54;12.43;;;6.45;;
31402;SDS011;18039;52.188;21.024;2023-05-20T02:08:22;11.52;;;6.30;;
31402;SDS011;18039;52.188;21.024;2023-05-20T02:10:49;9.75;;;5.88;;
31402;SDS011;18039;52.188;21.024;2023-05-20T02:13:17;10.52;;;5.85;;
31402;SDS011;18039;52.188;21.024;2023-05-20T02:15:44;8.75;;;5.90;;
31402;SDS011;18039;52.188;21.024;2023-05-20T02:18:11;12.55;;;6.35;;
31402;SDS011;18039;52.188;21.024;2023-05-20T02:20:39;8.68;;;5.65;;
31402;SDS011;18039;52.188;21.024;2023-05-20T02:23:08;8.32;;;5.55;;
31402;SDS011;18039;52.188;21.024;2023-05-20T02:25:35;10.75;;;5.60;;
31402;SDS011;18039;52.188;21.024;2023-05-20T02:28:02;16.58;;;6.18;;
31402;SDS011;18039;52.188;21.024;2023-05-20T02:30:31;9.93;;;5.65;;
31402;SDS011;18039;52.188;21.024;2023-05-20T02:32:59;12.63;;;6.07;;
31402;SDS011;18039;52.188;21.024;2023-05-20T02:35:26;7.60;;;5.10;;
31402;SDS011;18039;52.188;21.024;2023-05-20T02:37:53;9.20;;;5.63;;
31402;SDS011;18039;52.188;21.024;2023-05-20T02:40:21;10.45;;;5.43;;
31402;SDS011;18039;52.188;21.024;2023-05-20T02:42:49;10.38;;;5.80;;
31402;SDS011;18039;52.188;21.024;2023-05-20T02:45:16;9.75;;;6.20;;
31402;SDS011;18039;52.188;21.024;2023-05-20T02:47:44;14.00;;;5.45;;
31402;SDS011;18039;52.188;21.024;2023-05-20T02:50:11;11.05;;;5.53;;
31402;SDS011;18039;52.188;21.024;2023-05-20T02:52:39;6.88;;;5.20;;
31402;SDS011;18039;52.188;21.024;2023-05-20T02:55:08;10.43;;;5.70;;
31402;SDS011;18039;52.188;21.024;2023-05-20T02:57:36;7.55;;;5.22;;
31402;SDS011;18039;52.188;21.024;2023-05-20T03:00:06;10.35;;;5.20;;
31402;SDS011;18039;52.188;21.024;2023-05-20T03:02:38;12.07;;;5.60;;
31402;SDS011;18039;52.188;21.024;2023-05-20T03:05:06;8.43;;;5.03;;
31402;SDS011;18039;52.188;21.024;2023-05-20T03:07:34;9.82;;;4.72;;
31402;SDS011;18039;52.188;21.024;2023-05-20T03:10:04;14.35;;;5.95;;
31402;SDS011;18039;52.188;21.024;2023-05-20T03:12:33;10.88;;;4.90;;
31402;SDS011;18039;52.188;21.024;2023-05-20T03:15:00;10.07;;;5.57;;
31402;SDS011;18039;52.188;21.024;2023-05-20T03:17:27;9.80;;;5.35;;
31402;SDS011;18039;52.188;21.024;2023-05-20T03:19:55;8.52;;;5.22;;
31402;SDS011;18039;52.188;21.024;2023-05-20T03:22:24;10.13;;;4.60;;
31402;SDS011;18039;52.188;21.024;2023-05-20T03:24:50;7.40;;;4.93;;
31402;SDS011;18039;52.188;21.024;2023-05-20T03:27:19;8.23;;;5.30;;
31402;SDS011;18039;52.188;21.024;2023-05-20T03:29:47;13.30;;;5.32;;
31402;SDS011;18039;52.188;21.024;2023-05-20T03:32:14;10.77;;;4.68;;
31402;SDS011;18039;52.188;21.024;2023-05-20T03:34:42;11.52;;;5.50;;
31402;SDS011;18039;52.188;21.024;2023-05-20T03:37:10;10.70;;;5.15;;
31402;SDS011;18039;52.188;21.024;2023-05-20T03:39:37;12.93;;;5.03;;
31402;SDS011;18039;52.188;21.024;2023-05-20T03:42:06;8.07;;;4.85;;
31402;SDS011;18039;52.188;21.024;2023-05-20T03:44:33;9.73;;;4.88;;
31402;SDS011;18039;52.188;21.024;2023-05-20T03:47:01;9.80;;;4.82;;
31402;SDS011;18039;52.188;21.024;2023-05-20T03:49:30;10.65;;;5.20;;
31402;SDS011;18039;52.188;21.024;2023-05-20T03:51:58;9.82;;;5.10;;
31402;SDS011;18039;52.188;21.024;2023-05-20T03:54:25;9.60;;;5.07;;
31402;SDS011;18039;52.188;21.024;2023-05-20T03:56:52;12.05;;;4.75;;
31402;SDS011;18039;52.188;21.024;2023-05-20T03:59:20;11.23;;;4.90;;
31402;SDS011;18039;52.188;21.024;2023-05-20T04:01:48;9.82;;;5.63;;
31402;SDS011;18039;52.188;21.024;2023-05-20T04:04:15;8.82;;;5.00;;
31402;SDS011;18039;52.188;21.024;2023-05-20T04:06:43;8.68;;;4.78;;
31402;SDS011;18039;52.188;21.024;2023-05-20T04:09:10;10.02;;;4.45;;
31402;SDS011;18039;52.188;21.024;2023-05-20T04:11:37;7.88;;;4.60;;
31402;SDS011;18039;52.188;21.024;2023-05-20T04:14:05;6.15;;;4.20;;
31402;SDS011;18039;52.188;21.024;2023-05-20T04:16:32;11.40;;;5.13;;
31402;SDS011;18039;52.188;21.024;2023-05-20T04:19:00;12.85;;;5.05;;
31402;SDS011;18039;52.188;21.024;2023-05-20T04:21:29;9.65;;;4.45;;
31402;SDS011;18039;52.188;21.024;2023-05-20T04:23:57;14.10;;;4.40;;
31402;SDS011;18039;52.188;21.024;2023-05-20T04:26:24;7.72;;;4.57;;
31402;SDS011;18039;52.188;21.024;2023-05-20T04:28:52;9.75;;;5.38;;
31402;SDS011;18039;52.188;21.024;2023-05-20T04:31:19;7.22;;;3.88;;
31402;SDS011;18039;52.188;21.024;2023-05-20T04:33:53;8.50;;;4.40;;
31402;SDS011;18039;52.188;21.024;2023-05-20T04:36:21;9.45;;;5.05;;
31402;SDS011;18039;52.188;21.024;2023-05-20T04:38:54;10.32;;;4.63;;
31402;SDS011;18039;52.188;21.024;2023-05-20T04:41:23;8.23;;;4.47;;
31402;SDS011;18039;52.188;21.024;2023-05-20T04:43:50;8.18;;;4.18;;
31402;SDS011;18039;52.188;21.024;2023-05-20T04:46:17;10.45;;;5.10;;
31402;SDS011;18039;52.188;21.024;2023-05-20T04:48:46;9.73;;;4.38;;
31402;SDS011;18039;52.188;21.024;2023-05-20T04:51:13;11.98;;;4.35;;
31402;SDS011;18039;52.188;21.024;2023-05-20T04:53:41;8.38;;;3.78;;
31402;SDS011;18039;52.188;21.024;2023-05-20T04:56:12;8.82;;;4.25;;
31402;SDS011;18039;52.188;21.024;2023-05-20T04:58:41;7.53;;;3.85;;
31402;SDS011;18039;52.188;21.024;2023-05-20T05:01:09;5.90;;;3.78;;
31402;SDS011;18039;52.188;21.024;2023-05-20T05:03:36;6.90;;;3.70;;
31402;SDS011;18039;52.188;21.024;2023-05-20T05:06:03;6.00;;;4.13;;
31402;SDS011;18039;52.188;21.024;2023-05-20T05:08:30;5.78;;;3.88;;
31402;SDS011;18039;52.188;21.024;2023-05-20T05:10:58;6.35;;;4.22;;
31402;SDS011;18039;52.188;21.024;2023-05-20T05:13:25;14.20;;;4.18;;
31402;SDS011;18039;52.188;21.024;2023-05-20T05:16:00;8.75;;;3.70;;
31402;SDS011;18039;52.188;21.024;2023-05-20T05:18:30;9.70;;;4.32;;
31402;SDS011;18039;52.188;21.024;2023-05-20T05:21:01;8.25;;;4.00;;
31402;SDS011;18039;52.188;21.024;2023-05-20T05:23:30;7.63;;;4.05;;
31402;SDS011;18039;52.188;21.024;2023-05-20T05:25:58;8.52;;;4.25;;
31402;SDS011;18039;52.188;21.024;2023-05-20T05:28:26;8.52;;;4.18;;
31402;SDS011;18039;52.188;21.024;2023-05-20T05:30:54;7.13;;;3.80;;
31402;SDS011;18039;52.188;21.024;2023-05-20T05:33:25;8.50;;;3.90;;
31402;SDS011;18039;52.188;21.024;2023-05-20T05:35:53;6.53;;;3.65;;
31402;SDS011;18039;52.188;21.024;2023-05-20T05:38:20;7.57;;;3.78;;
31402;SDS011;18039;52.188;21.024;2023-05-20T05:40:47;4.90;;;3.47;;
31402;SDS011;18039;52.188;21.024;2023-05-20T05:43:15;8.00;;;3.38;;
31402;SDS011;18039;52.188;21.024;2023-05-20T05:45:45;7.82;;;3.60;;
31402;SDS011;18039;52.188;21.024;2023-05-20T05:48:13;7.43;;;3.50;;
31402;SDS011;18039;52.188;21.024;2023-05-20T05:50:45;8.02;;;3.97;;
31402;SDS011;18039;52.188;21.024;2023-05-20T05:53:14;5.18;;;3.22;;
31402;SDS011;18039;52.188;21.024;2023-05-20T05:55:45;8.88;;;3.30;;
31402;SDS011;18039;52.188;21.024;2023-05-20T05:58:13;9.20;;;3.50;;
31402;SDS011;18039;52.188;21.024;2023-05-20T06:00:41;9.88;;;3.65;;
31402;SDS011;18039;52.188;21.024;2023-05-20T06:03:09;5.68;;;3.67;;
31402;SDS011;18039;52.188;21.024;2023-05-20T06:05:37;8.73;;;3.92;;
31402;SDS011;18039;52.188;21.024;2023-05-20T06:08:04;7.70;;;3.45;;
31402;SDS011;18039;52.188;21.024;2023-05-20T06:10:33;4.38;;;3.40;;
31402;SDS011;18039;52.188;21.024;2023-05-20T06:13:01;7.90;;;3.60;;
31402;SDS011;18039;52.188;21.024;2023-05-20T06:15:29;8.77;;;4.32;;
31402;SDS011;18039;52.188;21.024;2023-05-20T06:17:57;8.80;;;3.72;;
31402;SDS011;18039;52.188;21.024;2023-05-20T06:20:25;6.97;;;4.07;;
31402;SDS011;18039;52.188;21.024;2023-05-20T06:22:53;8.73;;;3.60;;
31402;SDS011;18039;52.188;21.024;2023-05-20T06:25:23;9.60;;;3.55;;
31402;SDS011;18039;52.188;21.024;2023-05-20T06:27:50;8.10;;;3.65;;
31402;SDS011;18039;52.188;21.024;2023-05-20T06:30:19;7.85;;;3.80;;
31402;SDS011;18039;52.188;21.024;2023-05-20T06:32:47;7.57;;;3.78;;
31402;SDS011;18039;52.188;21.024;2023-05-20T06:35:15;5.25;;;3.70;;
31402;SDS011;18039;52.188;21.024;2023-05-20T06:37:42;8.63;;;3.72;;
31402;SDS011;18039;52.188;21.024;2023-05-20T06:40:10;7.25;;;4.15;;
31402;SDS011;18039;52.188;21.024;2023-05-20T06:42:38;7.18;;;3.90;;
31402;SDS011;18039;52.188;21.024;2023-05-20T06:45:06;9.90;;;3.17;;
31402;SDS011;18039;52.188;21.024;2023-05-20T06:47:48;6.38;;;3.50;;
31402;SDS011;18039;52.188;21.024;2023-05-20T06:50:16;8.45;;;3.60;;
31402;SDS011;18039;52.188;21.024;2023-05-20T06:52:43;11.40;;;4.10;;
31402;SDS011;18039;52.188;21.024;2023-05-20T06:55:11;5.88;;;3.35;;
31402;SDS011;18039;52.188;21.024;2023-05-20T06:57:39;9.35;;;3.70;;
31402;SDS011;18039;52.188;21.024;2023-05-20T07:00:07;6.78;;;3.83;;
31402;SDS011;18039;52.188;21.024;2023-05-20T07:02:39;6.60;;;3.70;;
31402;SDS011;18039;52.188;21.024;2023-05-20T07:05:09;10.35;;;4.00;;
31402;SDS011;18039;52.188;21.024;2023-05-20T07:07:37;10.15;;;4.03;;
31402;SDS011;18039;52.188;21.024;2023-05-20T07:10:04;7.82;;;3.47;;
31402;SDS011;18039;52.188;21.024;2023-05-20T07:12:32;8.50;;;3.90;;
31402;SDS011;18039;52.188;21.024;2023-05-20T07:15:04;9.35;;;4.30;;
31402;SDS011;18039;52.188;21.024;2023-05-20T07:17:32;4.93;;;3.55;;
31402;SDS011;18039;52.188;21.024;2023-05-20T07:20:01;8.15;;;4.30;;
31402;SDS011;18039;52.188;21.024;2023-05-20T07:22:31;10.30;;;4.30;;
31402;SDS011;18039;52.188;21.024;2023-05-20T07:25:26;6.10;;;4.10;;
31402;SDS011;18039;52.188;21.024;2023-05-20T07:27:54;6.82;;;4.35;;
31402;SDS011;18039;52.188;21.024;2023-05-20T07:30:22;13.25;;;5.20;;
31402;SDS011;18039;52.188;21.024;2023-05-20T07:33:10;10.55;;;4.60;;
31402;SDS011;18039;52.188;21.024;2023-05-20T07:35:47;29.70;;;11.55;;
31402;SDS011;18039;52.188;21.024;2023-05-20T07:38:16;8.50;;;3.75;;
31402;SDS011;18039;52.188;21.024;2023-05-20T07:40:56;22.03;;;8.67;;
31402;SDS011;18039;52.188;21.024;2023-05-20T07:43:24;6.82;;;3.90;;
31402;SDS011;18039;52.188;21.024;2023-05-20T07:45:51;11.40;;;4.35;;
31402;SDS011;18039;52.188;21.024;2023-05-20T07:48:19;4.88;;;3.63;;
31402;SDS011;18039;52.188;21.024;2023-05-20T07:50:46;5.55;;;3.70;;
31402;SDS011;18039;52.188;21.024;2023-05-20T07:53:15;8.52;;;4.35;;
31402;SDS011;18039;52.188;21.024;2023-05-20T07:55:43;8.60;;;4.20;;
31402;SDS011;18039;52.188;21.024;2023-05-20T07:58:12;5.65;;;3.47;;
31402;SDS011;18039;52.188;21.024;2023-05-20T08:00:40;7.35;;;3.85;;
31402;SDS011;18039;52.188;21.024;2023-05-20T08:03:07;6.03;;;3.42;;
31402;SDS011;18039;52.188;21.024;2023-05-20T08:05:52;5.75;;;3.85;;
31402;SDS011;18039;52.188;21.024;2023-05-20T08:08:20;7.50;;;3.72;;
31402;SDS011;18039;52.188;21.024;2023-05-20T08:10:59;9.68;;;3.33;;
31402;SDS011;18039;52.188;21.024;2023-05-20T08:13:29;4.82;;;3.60;;
31402;SDS011;18039;52.188;21.024;2023-05-20T08:15:58;6.80;;;3.53;;
31402;SDS011;18039;52.188;21.024;2023-05-20T08:18:26;5.88;;;3.38;;
31402;SDS011;18039;52.188;21.024;2023-05-20T08:20:53;9.40;;;3.85;;
31402;SDS011;18039;52.188;21.024;2023-05-20T08:23:20;7.65;;;3.83;;
31402;SDS011;18039;52.188;21.024;2023-05-20T08:25:49;5.40;;;3.78;;
31402;SDS011;18039;52.188;21.024;2023-05-20T08:28:18;9.43;;;3.60;;
31402;SDS011;18039;52.188;21.024;2023-05-20T08:30:46;5.63;;;3.25;;
31402;SDS011;18039;52.188;21.024;2023-05-20T08:33:14;9.23;;;3.60;;
31402;SDS011;18039;52.188;21.024;2023-05-20T08:35:42;5.18;;;3.35;;
31402;SDS011;18039;52.188;21.024;2023-05-20T08:38:09;10.13;;;3.63;;
31402;SDS011;18039;52.188;21.024;2023-05-20T08:40:36;8.80;;;3.97;;
31402;SDS011;18039;52.188;21.024;2023-05-20T08:43:04;10.85;;;4.13;;
31402;SDS011;18039;52.188;21.024;2023-05-20T08:45:32;7.95;;;3.50;;
31402;SDS011;18039;52.188;21.024;2023-05-20T08:48:04;7.72;;;3.72;;
31402;SDS011;18039;52.188;21.024;2023-05-20T08:50:32;7.00;;;3.78;;
31402;SDS011;18039;52.188;21.024;2023-05-20T08:52:59;10.88;;;4.25;;
31402;SDS011;18039;52.188;21.024;2023-05-20T08:55:36;5.75;;;3.67;;
31402;SDS011;18039;52.188;21.024;2023-05-20T08:58:08;7.20;;;3.65;;
31402;SDS011;18039;52.188;21.024;2023-05-20T09:00:36;5.15;;;3.47;;
31402;SDS011;18039;52.188;21.024;2023-05-20T09:03:04;9.52;;;4.55;;
31402;SDS011;18039;52.188;21.024;2023-05-20T09:05:32;5.70;;;3.67;;
31402;SDS011;18039;52.188;21.024;2023-05-20T09:08:07;9.60;;;3.97;;
31402;SDS011;18039;52.188;21.024;2023-05-20T09:10:39;7.20;;;3.70;;
31402;SDS011;18039;52.188;21.024;2023-05-20T09:13:10;8.05;;;4.22;;
31402;SDS011;18039;52.188;21.024;2023-05-20T09:15:38;9.05;;;3.90;;
31402;SDS011;18039;52.188;21.024;2023-05-20T09:18:06;8.38;;;4.05;;
31402;SDS011;18039;52.188;21.024;2023-05-20T09:20:35;5.22;;;3.38;;
31402;SDS011;18039;52.188;21.024;2023-05-20T09:23:04;15.15;;;4.28;;
31402;SDS011;18039;52.188;21.024;2023-05-20T09:25:34;7.72;;;3.65;;
31402;SDS011;18039;52.188;21.024;2023-05-20T09:28:04;8.73;;;4.55;;
31402;SDS011;18039;52.188;21.024;2023-05-20T09:30:33;8.07;;;4.10;;
31402;SDS011;18039;52.188;21.024;2023-05-20T09:33:02;6.32;;;4.10;;
31402;SDS011;18039;52.188;21.024;2023-05-20T09:35:33;7.03;;;4.38;;
31402;SDS011;18039;52.188;21.024;2023-05-20T09:38:03;5.85;;;4.40;;
31402;SDS011;18039;52.188;21.024;2023-05-20T09:40:34;10.03;;;4.37;;
31402;SDS011;18039;52.188;21.024;2023-05-20T09:43:05;10.27;;;4.18;;
31402;SDS011;18039;52.188;21.024;2023-05-20T09:45:33;8.57;;;4.28;;
31402;SDS011;18039;52.188;21.024;2023-05-20T09:48:01;8.98;;;4.45;;
31402;SDS011;18039;52.188;21.024;2023-05-20T09:50:30;11.65;;;4.60;;
31402;SDS011;18039;52.188;21.024;2023-05-20T09:53:03;10.95;;;4.60;;
31402;SDS011;18039;52.188;21.024;2023-05-20T09:55:31;9.95;;;4.70;;
31402;SDS011;18039;52.188;21.024;2023-05-20T09:58:02;10.60;;;4.85;;
31402;SDS011;18039;52.188;21.024;2023-05-20T10:00:29;8.02;;;5.03;;
31402;SDS011;18039;52.188;21.024;2023-05-20T10:02:57;8.02;;;4.57;;
31402;SDS011;18039;52.188;21.024;2023-05-20T10:05:34;10.38;;;4.88;;
31402;SDS011;18039;52.188;21.024;2023-05-20T10:10:53;7.45;;;4.43;;
31402;SDS011;18039;52.188;21.024;2023-05-20T10:24:28;9.82;;;4.68;;
31402;SDS011;18039;52.188;21.024;2023-05-20T10:27:11;6.07;;;4.57;;
31402;SDS011;18039;52.188;21.024;2023-05-20T10:29:50;10.77;;;4.50;;
31402;SDS011;18039;52.188;21.024;2023-05-20T10:32:23;9.45;;;5.00;;
31402;SDS011;18039;52.188;21.024;2023-05-20T10:34:58;6.22;;;4.78;;
31402;SDS011;18039;52.188;21.024;2023-05-20T10:37:49;7.28;;;4.43;;
31402;SDS011;18039;52.188;21.024;2023-05-20T10:40:15;9.73;;;5.00;;
31402;SDS011;18039;52.188;21.024;2023-05-20T10:42:45;7.00;;;4.53;;
31402;SDS011;18039;52.188;21.024;2023-05-20T10:45:27;10.35;;;4.68;;
31402;SDS011;18039;52.188;21.024;2023-05-20T10:47:58;11.82;;;4.43;;
31402;SDS011;18039;52.188;21.024;2023-05-20T10:50:35;6.85;;;4.40;;
31402;SDS011;18039;52.188;21.024;2023-05-20T10:53:04;8.57;;;4.90;;
31402;SDS011;18039;52.188;21.024;2023-05-20T10:55:37;8.48;;;4.15;;
31402;SDS011;18039;52.188;21.024;2023-05-20T10:58:06;10.30;;;4.60;;
31402;SDS011;18039;52.188;21.024;2023-05-20T11:00:34;8.07;;;4.35;;
31402;SDS011;18039;52.188;21.024;2023-05-20T11:03:05;6.00;;;4.50;;
31402;SDS011;18039;52.188;21.024;2023-05-20T11:05:33;8.88;;;4.53;;
31402;SDS011;18039;52.188;21.024;2023-05-20T11:08:02;8.38;;;5.00;;
31402;SDS011;18039;52.188;21.024;2023-05-20T11:10:46;8.20;;;4.88;;
31402;SDS011;18039;52.188;21.024;2023-05-20T11:13:13;6.60;;;4.40;;
31402;SDS011;18039;52.188;21.024;2023-05-20T11:15:41;9.63;;;5.40;;
31402;SDS011;18039;52.188;21.024;2023-05-20T11:18:09;9.90;;;5.05;;
31402;SDS011;18039;52.188;21.024;2023-05-20T11:20:37;6.78;;;4.68;;
31402;SDS011;18039;52.188;21.024;2023-05-20T11:23:05;9.95;;;4.82;;
31402;SDS011;18039;52.188;21.024;2023-05-20T11:25:32;9.13;;;4.82;;
31402;SDS011;18039;52.188;21.024;2023-05-20T11:28:00;9.70;;;4.40;;
31402;SDS011;18039;52.188;21.024;2023-05-20T11:30:27;14.43;;;5.15;;
31402;SDS011;18039;52.188;21.024;2023-05-20T11:32:57;7.57;;;4.53;;
31402;SDS011;18039;52.188;21.024;2023-05-20T11:35:29;8.70;;;5.15;;
31402;SDS011;18039;52.188;21.024;2023-05-20T11:38:01;8.77;;;4.43;;
31402;SDS011;18039;52.188;21.024;2023-05-20T11:40:32;10.20;;;6.25;;
31402;SDS011;18039;52.188;21.024;2023-05-20T11:43:16;7.38;;;4.95;;
31402;SDS011;18039;52.188;21.024;2023-05-20T11:45:44;7.78;;;4.68;;
31402;SDS011;18039;52.188;21.024;2023-05-20T11:48:13;7.05;;;4.93;;
31402;SDS011;18039;52.188;21.024;2023-05-20T11:50:44;9.52;;;5.07;;
31402;SDS011;18039;52.188;21.024;2023-05-20T11:53:15;8.27;;;4.68;;
31402;SDS011;18039;52.188;21.024;2023-05-20T11:58:20;6.50;;;4.65;;
31402;SDS011;18039;52.188;21.024;2023-05-20T12:00:49;11.52;;;5.10;;
31402;SDS011;18039;52.188;21.024;2023-05-20T12:03:25;5.63;;;4.32;;
31402;SDS011;18039;52.188;21.024;2023-05-20T12:05:53;7.45;;;4.97;;
31402;SDS011;18039;52.188;21.024;2023-05-20T12:08:20;6.68;;;4.63;;
31402;SDS011;18039;52.188;21.024;2023-05-20T12:10:48;8.82;;;4.88;;
31402;SDS011;18039;52.188;21.024;2023-05-20T12:13:15;13.07;;;5.22;;
31402;SDS011;18039;52.188;21.024;2023-05-20T12:15:43;8.45;;;4.90;;
31402;SDS011;18039;52.188;21.024;2023-05-20T12:18:11;7.70;;;5.22;;
31402;SDS011;18039;52.188;21.024;2023-05-20T12:20:38;7.38;;;4.97;;
31402;SDS011;18039;52.188;21.024;2023-05-20T12:23:05;6.30;;;4.78;;
31402;SDS011;18039;52.188;21.024;2023-05-20T12:25:32;9.80;;;5.30;;
31402;SDS011;18039;52.188;21.024;2023-05-20T12:28:00;13.00;;;5.15;;
31402;SDS011;18039;52.188;21.024;2023-05-20T12:30:28;7.13;;;5.25;;
31402;SDS011;18039;52.188;21.024;2023-05-20T12:32:55;12.10;;;5.13;;
31402;SDS011;18039;52.188;21.024;2023-05-20T12:35:41;9.25;;;4.70;;
31402;SDS011;18039;52.188;21.024;2023-05-20T12:38:10;9.50;;;4.78;;
31402;SDS011;18039;52.188;21.024;2023-05-20T12:40:37;11.57;;;5.05;;
31402;SDS011;18039;52.188;21.024;2023-05-20T12:43:05;11.38;;;5.28;;
31402;SDS011;18039;52.188;21.024;2023-05-20T12:45:32;16.63;;;4.70;;
31402;SDS011;18039;52.188;21.024;2023-05-20T12:47:59;8.93;;;4.68;;
31402;SDS011;18039;52.188;21.024;2023-05-20T12:50:27;7.38;;;4.78;;
31402;SDS011;18039;52.188;21.024;2023-05-20T12:52:55;8.27;;;4.75;;
31402;SDS011;18039;52.188;21.024;2023-05-20T12:55:22;6.68;;;5.15;;
31402;SDS011;18039;52.188;21.024;2023-05-20T12:57:49;8.35;;;4.47;;
31402;SDS011;18039;52.188;21.024;2023-05-20T13:00:16;8.23;;;4.88;;
31402;SDS011;18039;52.188;21.024;2023-05-20T13:02:44;6.10;;;4.68;;
31402;SDS011;18039;52.188;21.024;2023-05-20T13:05:12;6.63;;;4.90;;
31402;SDS011;18039;52.188;21.024;2023-05-20T13:07:40;11.02;;;4.72;;
31402;SDS011;18039;52.188;21.024;2023-05-20T13:10:08;6.32;;;4.53;;
31402;SDS011;18039;52.188;21.024;2023-05-20T13:12:36;10.00;;;4.43;;
31402;SDS011;18039;52.188;21.024;2023-05-20T13:15:04;7.45;;;4.88;;
31402;SDS011;18039;52.188;21.024;2023-05-20T13:17:32;7.63;;;4.30;;
31402;SDS011;18039;52.188;21.024;2023-05-20T13:19:59;6.78;;;4.10;;
31402;SDS011;18039;52.188;21.024;2023-05-20T13:22:26;9.15;;;4.50;;
31402;SDS011;18039;52.188;21.024;2023-05-20T13:24:53;6.03;;;4.70;;
31402;SDS011;18039;52.188;21.024;2023-05-20T13:27:21;9.02;;;4.70;;
31402;SDS011;18039;52.188;21.024;2023-05-20T13:29:48;9.52;;;4.72;;
31402;SDS011;18039;52.188;21.024;2023-05-20T13:32:15;10.85;;;5.38;;
31402;SDS011;18039;52.188;21.024;2023-05-20T13:34:43;6.38;;;4.57;;
31402;SDS011;18039;52.188;21.024;2023-05-20T13:37:11;6.88;;;4.72;;
31402;SDS011;18039;52.188;21.024;2023-05-20T13:39:38;13.00;;;4.57;;
31402;SDS011;18039;52.188;21.024;2023-05-20T13:42:06;6.68;;;5.13;;
31402;SDS011;18039;52.188;21.024;2023-05-20T13:44:33;9.45;;;4.80;;
31402;SDS011;18039;52.188;21.024;2023-05-20T13:47:00;12.40;;;5.45;;
31402;SDS011;18039;52.188;21.024;2023-05-20T13:49:27;8.52;;;4.90;;
31402;SDS011;18039;52.188;21.024;2023-05-20T13:51:54;8.70;;;5.63;;
31402;SDS011;18039;52.188;21.024;2023-05-20T13:54:21;8.98;;;5.25;;
31402;SDS011;18039;52.188;21.024;2023-05-20T13:56:49;10.10;;;5.32;;
31402;SDS011;18039;52.188;21.024;2023-05-20T13:59:17;8.65;;;5.00;;
31402;SDS011;18039;52.188;21.024;2023-05-20T14:01:44;11.10;;;4.60;;
31402;SDS011;18039;52.188;21.024;2023-05-20T14:04:12;9.77;;;5.20;;
31402;SDS011;18039;52.188;21.024;2023-05-20T14:06:39;10.77;;;5.10;;
31402;SDS011;18039;52.188;21.024;2023-05-20T14:09:07;7.43;;;4.60;;
31402;SDS011;18039;52.188;21.024;2023-05-20T14:11:37;12.00;;;5.68;;
31402;SDS011;18039;52.188;21.024;2023-05-20T14:14:04;6.07;;;4.80;;
31402;SDS011;18039;52.188;21.024;2023-05-20T14:16:32;9.13;;;4.70;;
31402;SDS011;18039;52.188;21.024;2023-05-20T14:18:59;11.73;;;4.90;;
31402;SDS011;18039;52.188;21.024;2023-05-20T14:21:27;10.13;;;4.82;;
31402;SDS011;18039;52.188;21.024;2023-05-20T14:23:54;9.75;;;5.25;;
31402;SDS011;18039;52.188;21.024;2023-05-20T14:26:21;7.10;;;4.50;;
31402;SDS011;18039;52.188;21.024;2023-05-20T14:28:49;8.88;;;4.97;;
31402;SDS011;18039;52.188;21.024;2023-05-20T14:31:16;7.55;;;4.55;;
31402;SDS011;18039;52.188;21.024;2023-05-20T14:33:43;14.20;;;4.47;;
31402;SDS011;18039;52.188;21.024;2023-05-20T14:36:11;8.27;;;4.78;;
31402;SDS011;18039;52.188;21.024;2023-05-20T14:38:38;8.18;;;5.05;;
31402;SDS011;18039;52.188;21.024;2023-05-20T14:41:06;10.70;;;4.57;;
31402;SDS011;18039;52.188;21.024;2023-05-20T14:43:33;7.85;;;4.63;;
31402;SDS011;18039;52.188;21.024;2023-05-20T14:46:00;8.00;;;4.53;;
31402;SDS011;18039;52.188;21.024;2023-05-20T14:48:28;6.93;;;4.57;;
31402;SDS011;18039;52.188;21.024;2023-05-20T14:50:55;7.38;;;3.90;;
31402;SDS011;18039;52.188;21.024;2023-05-20T14:53:22;6.53;;;4.00;;
31402;SDS011;18039;52.188;21.024;2023-05-20T14:55:50;5.28;;;3.90;;
31402;SDS011;18039;52.188;21.024;2023-05-20T14:58:17;10.13;;;4.03;;